Latest Weather Observations for Busselton Jetty

IDW60801

Issued at 9:05 am WST Saturday 23 August 2014 (issued every 30 minutes, with the page automatically refreshed every 10 minutes)

About weather observations | Map of weather stations | Latest weather observations for WA | Other Formats
Station Details ID: 009937 Name: BUSSELTON JETTY Lat: -33.63 Lon: 115.34 Height: 3.0 m
Data from the previous 72 hours. | See also: Recent months for locations in Western Australia
Date/Time
WST
Temp
°C
App
Temp
°C
Dew
Point
Rel
Hum
%
Delta-T
°C
Wind Press
QNH
hPa
Press
MSL
hPa
Rain
since 9 am
mm
Dir
 
Spd
km/h
Gust
km/h
Spd
kts
Gust
kts
23/09:00am - - - - - N 26 30 14 16 - - -
23/08:30am - - - - - N 28 32 15 17 - - -
23/08:00am - - - - - N 24 28 13 15 - - -
23/07:30am - - - - - E 19 24 10 13 - - -
23/07:00am - - - - - E 19 22 10 12 - - -
23/06:30am - - - - - SE 15 17 8 9 - - -
23/06:00am - - - - - SSE 11 15 6 8 - - -
23/05:30am - - - - - S 13 15 7 8 - - -
23/05:00am - - - - - E 17 20 9 11 - - -
23/04:30am - - - - - E 20 24 11 13 - - -
23/04:00am - - - - - E 20 24 11 13 - - -
23/03:30am - - - - - E 19 24 10 13 - - -
23/03:00am - - - - - E 19 22 10 12 - - -
23/02:30am - - - - - E 17 19 9 10 - - -
23/02:00am - - - - - E 17 19 9 10 - - -
23/01:30am - - - - - E 13 17 7 9 - - -
23/01:00am - - - - - ESE 13 15 7 8 - - -
23/12:30am - - - - - ESE 13 15 7 8 - - -
23/12:00am - - - - - SE 13 13 7 7 - - -
 
Date/Time
WST
Temp
°C
App
Temp
°C
Dew
Point
Rel
Hum
%
Delta-T
°C
Wind Press
QNH
hPa
Press
MSL
hPa
Rain
since 9 am
mm
Dir
 
Spd
km/h
Gust
km/h
Spd
kts
Gust
kts
22/11:30pm - - - - - SE 9 11 5 6 - - -
22/11:00pm - - - - - SE 13 15 7 8 - - -
22/10:30pm - - - - - SE 13 15 7 8 - - -
22/10:00pm - - - - - SSE 11 11 6 6 - - -
22/09:30pm - - - - - SSW 9 11 5 6 - - -
22/09:00pm - - - - - SW 11 11 6 6 - - -
22/08:30pm - - - - - WNW 15 17 8 9 - - -
22/08:00pm - - - - - NW 17 19 9 10 - - -
22/07:30pm - - - - - NNW 17 19 9 10 - - -
22/07:00pm - - - - - NW 17 20 9 11 - - -
22/06:30pm - - - - - NW 19 24 10 13 - - -
22/06:00pm - - - - - NNW 15 17 8 9 - - -
22/05:30pm - - - - - N 13 15 7 8 - - -
22/05:00pm - - - - - NNW 15 17 8 9 - - -
22/04:30pm - - - - - N 15 17 8 9 - - -
22/04:00pm - - - - - NNW 20 24 11 13 - - -
22/03:30pm - - - - - N 20 24 11 13 - - -
22/03:00pm - - - - - N 17 20 9 11 - - -
22/02:30pm - - - - - N 17 20 9 11 - - -
22/02:00pm - - - - - N 13 15 7 8 - - -
22/01:30pm - - - - - NNW 11 13 6 7 - - -
22/01:00pm - - - - - NNW 4 7 2 4 - - -
22/12:30pm - - - - - SW 11 17 6 9 - - -
22/12:00pm - - - - - W 11 15 6 8 - - -
22/11:30am - - - - - NNE 7 9 4 5 - - -
22/11:00am - - - - - N 6 7 3 4 - - -
22/10:30am - - - - - NW 7 11 4 6 - - -
22/10:00am - - - - - WNW 20 28 11 15 - - -
22/09:30am - - - - - WSW 7 13 4 7 - - -
22/09:00am - - - - - WSW 9 11 5 6 - - -
22/08:30am - - - - - WNW 13 17 7 9 - - -
22/08:00am - - - - - NW 22 33 12 18 - - -
22/07:30am - - - - - W 11 13 6 7 - - -
22/07:00am - - - - - WSW 13 15 7 8 - - -
22/06:30am - - - - - SW 17 22 9 12 - - -
22/06:00am - - - - - WSW 28 44 15 24 - - -
22/05:55am - - - - - W 28 44 15 24 - - -
22/05:30am - - - - - W 19 24 10 13 - - -
22/05:00am - - - - - WSW 15 19 8 10 - - -
22/04:30am - - - - - WSW 20 28 11 15 - - -
22/04:00am - - - - - W 22 26 12 14 - - -
22/03:30am - - - - - W 28 33 15 18 - - -
22/03:00am - - - - - W 30 33 16 18 - - -
22/02:30am - - - - - WNW 33 41 18 22 - - -
22/02:00am - - - - - W 32 35 17 19 - - -
22/01:33am - - - - - W 30 50 16 27 - - -
22/01:30am - - - - - W 26 32 14 17 - - -
22/01:00am - - - - - W 35 41 19 22 - - -
22/12:40am - - - - - W 48 52 26 28 - - -
22/12:34am - - - - - WNW 44 74 24 40 - - -
22/12:30am - - - - - NW 39 52 21 28 - - -
22/12:00am - - - - - WNW 50 61 27 33 - - -
 
Date/Time
WST
Temp
°C
App
Temp
°C
Dew
Point
Rel
Hum
%
Delta-T
°C
Wind Press
QNH
hPa
Press
MSL
hPa
Rain
since 9 am
mm
Dir
 
Spd
km/h
Gust
km/h
Spd
kts
Gust
kts
21/11:30pm - - - - - NW 39 48 21 26 - - -
21/11:00pm - - - - - WNW 52 70 28 38 - - -
21/10:52pm - - - - - NW 46 69 25 37 - - -
21/10:30pm - - - - - NW 41 48 22 26 - - -
21/10:00pm - - - - - NW 41 50 22 27 - - -
21/09:30pm - - - - - NW 41 50 22 27 - - -
21/09:00pm - - - - - NW 43 52 23 28 - - -
21/08:30pm - - - - - NW 43 52 23 28 - - -
21/08:00pm - - - - - NNW 33 39 18 21 - - -
21/07:41pm - - - - - NNW 35 39 19 21 - - -
21/07:30pm - - - - - WNW 39 54 21 29 - - -
21/07:25pm - - - - - WNW 46 54 25 29 - - -
21/07:00pm - - - - - NNW 33 37 18 20 - - -
21/06:30pm - - - - - NNW 24 26 13 14 - - -
21/06:00pm - - - - - NW 26 30 14 16 - - -
21/05:30pm - - - - - NW 19 22 10 12 - - -
21/05:00pm - - - - - NW 26 30 14 16 - - -
21/04:30pm - - - - - WNW 28 33 15 18 - - -
21/04:00pm - - - - - WNW 32 37 17 20 - - -
21/03:30pm - - - - - WNW 37 43 20 23 - - -
21/03:00pm - - - - - W 37 43 20 23 - - -
21/02:30pm - - - - - WNW 43 50 23 27 - - -
21/02:00pm - - - - - NW 44 56 24 30 - - -
21/01:30pm - - - - - WNW 37 46 20 25 - - -
21/01:00pm - - - - - WNW 32 39 17 21 - - -
21/12:30pm - - - - - WNW 30 35 16 19 - - -
21/12:00pm - - - - - WNW 24 28 13 15 - - -
21/11:32am - - - - - W 32 50 17 27 - - -
21/11:30am - - - - - W 35 50 19 27 - - -
21/11:00am - - - - - WNW 28 33 15 18 - - -
21/10:30am - - - - - NW 28 33 15 18 - - -
21/10:00am - - - - - N 33 41 18 22 - - -
21/09:30am - - - - - NNW 30 35 16 19 - - -
21/09:00am - - - - - NW 28 33 15 18 - - -
21/08:30am - - - - - NW 32 37 17 20 - - -
21/08:00am - - - - - NW 32 37 17 20 - - -
21/07:30am - - - - - NW 33 43 18 23 - - -
21/07:00am - - - - - NW 32 35 17 19 - - -
21/06:30am - - - - - NW 41 52 22 28 - - -
21/06:00am - - - - - WNW 43 54 23 29 - - -
21/05:30am - - - - - WNW 44 54 24 29 - - -
21/05:07am - - - - - NW 33 52 18 28 - - -
21/05:00am - - - - - NW 33 37 18 20 - - -
21/04:36am - - - - - NW 39 48 21 26 - - -
21/04:30am - - - - - WNW 65 91 35 49 - - -
21/04:28am - - - - - WNW 72 91 39 49 - - -
21/04:25am - - - - - N 78 95 42 51 - - -
21/04:24am - - - - - NNE 56 95 30 51 - - -
21/04:23am - - - - - NNE 54 76 29 41 - - -
21/04:00am - - - - - N 56 69 30 37 - - -
21/03:30am - - - - - N 52 63 28 34 - - -
21/03:00am - - - - - NNE 48 59 26 32 - - -
21/02:30am - - - - - NNE 43 52 23 28 - - -
21/02:00am - - - - - N 44 52 24 28 - - -
21/01:30am - - - - - NNE 43 57 23 31 - - -
21/01:00am - - - - - N 39 48 21 26 - - -
21/12:30am - - - - - N 44 54 24 29 - - -
21/12:05am - - - - - N 41 59 22 32 - - -
21/12:00am - - - - - NNE 37 46 20 25 - - -
 
Date/Time
WST
Temp
°C
App
Temp
°C
Dew
Point
Rel
Hum
%
Delta-T
°C
Wind Press
QNH
hPa
Press
MSL
hPa
Rain
since 9 am
mm
Dir
 
Spd
km/h
Gust
km/h
Spd
kts
Gust
kts
20/11:30pm - - - - - N 41 50 22 27 - - -
20/11:00pm - - - - - NNE 35 41 19 22 - - -
20/10:30pm - - - - - N 37 44 20 24 - - -
20/10:00pm - - - - - N 35 41 19 22 - - -
20/09:30pm - - - - - N 33 39 18 21 - - -
20/09:00pm - - - - - N 30 33 16 18 - - -
20/08:30pm - - - - - N 35 39 19 21 - - -
20/08:00pm - - - - - N 28 33 15 18 - - -
20/07:30pm - - - - - N 30 33 16 18 - - -
20/07:00pm - - - - - N 28 30 15 16 - - -
20/06:30pm - - - - - N 26 30 14 16 - - -
20/06:00pm - - - - - N 30 35 16 19 - - -
20/05:30pm - - - - - N 28 32 15 17 - - -
20/05:00pm - - - - - N 24 28 13 15 - - -
20/04:30pm - - - - - N 22 28 12 15 - - -
20/04:00pm - - - - - N 26 32 14 17 - - -
20/03:30pm - - - - - N 26 30 14 16 - - -
20/03:00pm - - - - - N 17 20 9 11 - - -
20/02:30pm - - - - - N 19 22 10 12 - - -
20/02:00pm - - - - - N 24 28 13 15 - - -
20/01:30pm - - - - - NNW 17 20 9 11 - - -
20/01:00pm - - - - - NNW 20 24 11 13 - - -
20/12:30pm - - - - - N 19 22 10 12 - - -
20/12:00pm - - - - - NNE 22 28 12 15 - - -
20/11:30am - - - - - N 35 44 19 24 - - -
20/11:09am - - - - - N 35 52 19 28 - - -
20/11:00am - - - - - N 28 32 15 17 - - -
20/10:49am - - - - - N 28 44 15 24 - - -
20/10:30am - - - - - E 19 20 10 11 - - -
20/10:00am - - - - - NE 13 13 7 7 - - -
20/09:30am - - - - - E 13 15 7 8 - - -

Other Formats:

Comma delimited format used in spreadsheet applications
http://www.bom.gov.au/fwo/IDW60801/IDW60801.95602.axf

JavaScript Object Notation format (JSON) in row-major order
http://www.bom.gov.au/fwo/IDW60801/IDW60801.95602.json